Time;durP1;ratioP1;P1;durP2;ratioP2;P2;SDS_P1;SDS_P2;PMS_P1;PMS_P2;Temp;Humidity;BMP_temperature;BMP_pressure;BME280_temperature;BME280_humidity;BME280_pressure;Samples;Min_cycle;Max_cycle;Signal;HPM_P1;HPM_P2
2023/03/10 00:02:25;;;;;;;2.77;1.50;;;12.40;43.80;;;;;;20286;6915;281441;-81
2023/03/10 00:04:49;;;;;;;2.33;1.50;;;12.40;43.20;;;;;;20305;6915;282594;-82
2023/03/10 00:07:15;;;;;;;1.97;1.27;;;12.70;42.60;;;;;;20517;6913;118495;-80
2023/03/10 00:09:41;;;;;;;1.80;1.40;;;12.40;43.10;;;;;;20440;6927;118525;-80
2023/03/10 00:12:07;;;;;;;2.07;1.10;;;12.40;43.00;;;;;;20498;6918;119037;-81
2023/03/10 00:14:32;;;;;;;1.63;1.43;;;12.20;43.40;;;;;;20500;6918;121428;-83
2023/03/10 00:17:01;;;;;;;1.93;1.57;;;12.00;43.70;;;;;;20302;6918;340455;-80
2023/03/10 00:19:27;;;;;;;2.30;1.30;;;12.20;43.50;;;;;;20495;6918;119549;-80
2023/03/10 00:21:53;;;;;;;2.75;1.50;;;12.30;43.90;;;;;;20291;6918;344388;-82
2023/03/10 00:24:19;;;;;;;2.33;1.75;;;12.30;43.20;;;;;;20293;6918;326738;-81
2023/03/10 00:26:44;;;;;;;2.92;1.50;;;12.60;42.70;;;;;;20292;6919;310250;-81
2023/03/10 00:29:10;;;;;;;2.23;1.40;;;12.90;42.30;;;;;;20474;6919;118970;-82
2023/03/10 00:31:36;;;;;;;1.97;1.40;;;12.80;42.40;;;;;;20467;6919;124611;-82
2023/03/10 00:34:03;;;;;;;1.13;1.10;;;12.50;42.70;;;;;;20488;6919;117730;-80
2023/03/10 00:36:30;;;;;;;2.13;1.60;;;12.20;43.80;;;;;;20283;6919;292715;-81
2023/03/10 00:38:56;;;;;;;1.80;1.53;;;12.30;42.90;;;;;;20283;6919;282982;-80
2023/03/10 00:41:21;;;;;;;2.00;1.80;;;12.60;42.50;;;;;;20259;6919;310735;-80
2023/03/10 00:43:47;;;;;;;3.50;1.57;;;12.90;42.50;;;;;;20506;6919;119426;-81
2023/03/10 00:46:13;;;;;;;1.83;1.20;;;12.70;42.40;;;;;;20511;6919;117956;-80
2023/03/10 00:48:39;;;;;;;2.33;2.10;;;12.40;42.90;;;;;;20508;6919;117926;-82
2023/03/10 00:51:05;;;;;;;2.15;1.55;;;12.10;44.00;;;;;;20289;6919;344512;-82
2023/03/10 00:53:31;;;;;;;2.92;1.92;;;12.20;44.00;;;;;;20266;6919;310325;-80
2023/03/10 00:56:02;;;;;;;1.70;1.50;;;12.50;43.70;;;;;;20283;6919;306761;-82
2023/03/10 00:58:28;;;;;;;2.90;1.80;;;12.70;43.10;;;;;;20273;6919;344753;-83
2023/03/10 01:00:53;;;;;;;2.53;1.60;;;12.90;43.30;;;;;;20294;6919;337861;-83
2023/03/10 01:03:19;;;;;;;2.27;1.73;;;13.00;43.00;;;;;;20276;6919;307136;-80
2023/03/10 01:05:45;;;;;;;2.47;1.67;;;13.10;42.40;;;;;;20283;6919;281568;-81
2023/03/10 01:08:10;;;;;;;2.10;1.33;;;13.20;42.30;;;;;;20387;6919;118016;-82
2023/03/10 01:10:36;;;;;;;3.53;1.60;;;13.00;42.60;;;;;;20113;6919;310383;-81
2023/03/10 01:13:02;;;;;;;1.70;1.60;;;12.70;43.10;;;;;;20507;6919;117174;-80
2023/03/10 01:15:27;;;;;;;3.00;1.73;;;12.70;43.10;;;;;;20277;6919;311339;-80
2023/03/10 01:17:55;;;;;;;1.37;1.27;;;12.50;43.00;;;;;;20509;6917;118729;-80
2023/03/10 01:20:21;;;;;;;2.00;1.70;;;12.50;43.20;;;;;;20298;6918;310135;-80
2023/03/10 01:22:48;;;;;;;1.80;1.33;;;12.50;43.20;;;;;;20507;6918;118015;-80
2023/03/10 01:25:14;;;;;;;2.00;1.60;;;12.40;43.40;;;;;;20298;6918;281484;-81
2023/03/10 01:27:42;;;;;;;2.87;1.43;;;12.30;44.10;;;;;;20498;6918;119076;-80
2023/03/10 01:30:08;;;;;;;2.35;1.60;;;12.30;43.60;;;;;;20275;6918;339448;-81
2023/03/10 01:32:34;;;;;;;1.87;1.50;;;12.40;43.50;;;;;;20304;6918;292660;-83
2023/03/10 01:35:00;;;;;;;2.23;1.93;;;12.60;43.30;;;;;;20300;6918;295302;-82
2023/03/10 01:37:25;;;;;;;2.62;1.87;;;12.80;43.10;;;;;;20289;6918;315239;-83
2023/03/10 01:39:51;;;;;;;4.03;1.93;;;13.00;43.10;;;;;;20312;6919;304424;-82
2023/03/10 01:42:17;;;;;;;2.50;2.00;;;13.10;44.10;;;;;;20305;6919;339175;-81
2023/03/10 01:44:43;;;;;;;1.90;1.52;;;13.10;43.30;;;;;;20314;6919;310391;-83
2023/03/10 01:47:10;;;;;;;1.73;1.60;;;13.10;43.30;;;;;;20235;6919;310760;-81
2023/03/10 01:49:41;;;;;;;3.37;1.83;;;13.10;43.50;;;;;;20307;6919;313956;-83
2023/03/10 01:52:16;;;;;;;1.50;1.40;;;13.20;43.60;;;;;;20545;6919;117116;-83
2023/03/10 01:54:45;;;;;;;2.87;1.43;;;12.80;43.80;;;;;;20528;6919;116660;-83
2023/03/10 01:57:10;;;;;;;1.93;1.50;;;12.00;45.30;;;;;;20508;6919;118737;-81
2023/03/10 01:59:37;;;;;;;2.10;1.60;;;12.00;45.30;;;;;;20490;6919;117634;-82
2023/03/10 02:02:03;;;;;;;3.25;1.90;;;11.70;45.90;;;;;;20305;6919;340062;-81
2023/03/10 02:04:32;;;;;;;2.60;1.73;;;11.90;46.70;;;;;;20304;6919;294937;-83
2023/03/10 02:06:59;;;;;;;2.43;1.57;;;12.10;46.20;;;;;;20494;6919;120924;-82
2023/03/10 02:09:27;;;;;;;1.77;1.63;;;11.90;46.60;;;;;;20488;6919;118122;-80
2023/03/10 02:11:53;;;;;;;2.07;1.70;;;11.90;46.60;;;;;;20510;6919;121583;-82
2023/03/10 02:14:18;;;;;;;1.10;1.00;;;11.70;47.10;;;;;;20512;6919;124831;-81
2023/03/10 02:16:44;;;;;;;2.33;1.70;;;11.50;48.30;;;;;;20305;6919;339635;-83
2023/03/10 02:19:09;;;;;;;2.58;1.50;;;11.70;49.00;;;;;;20293;6919;284596;-83
2023/03/10 02:21:35;;;;;;;2.20;1.30;;;12.00;49.40;;;;;;20263;6919;310690;-81
2023/03/10 02:24:11;;;;;;;1.83;0.83;;;12.40;49.40;;;;;;20495;6919;118564;-80
2023/03/10 02:26:46;;;;;;;1.67;1.02;;;12.30;49.60;;;;;;20305;6919;309341;-83
2023/03/10 02:29:13;;;;;;;0.77;0.60;;;12.30;49.60;;;;;;20501;6917;118086;-82
2023/03/10 02:31:39;;;;;;;2.30;1.00;;;12.20;49.40;;;;;;20237;6918;309158;-83
2023/03/10 02:34:05;;;;;;;1.00;0.90;;;12.30;50.40;;;;;;20342;6918;297532;-82
2023/03/10 02:36:31;;;;;;;1.03;0.80;;;12.50;50.30;;;;;;20501;6918;122818;-81
2023/03/10 02:38:57;;;;;;;0.83;0.57;;;12.40;49.90;;;;;;20495;6918;118719;-80
2023/03/10 02:41:26;;;;;;;1.03;0.70;;;12.20;50.10;;;;;;20270;6918;315044;-82
2023/03/10 02:43:51;;;;;;;0.82;0.60;;;12.20;50.70;;;;;;20300;6918;280397;-82
2023/03/10 02:46:17;;;;;;;0.90;0.60;;;12.50;50.50;;;;;;20292;6918;343266;-81
2023/03/10 02:48:43;;;;;;;0.57;0.57;;;12.70;50.10;;;;;;20303;6918;294160;-80
2023/03/10 02:51:08;;;;;;;0.93;0.60;;;12.90;49.90;;;;;;20298;6919;310188;-84
2023/03/10 02:53:34;;;;;;;0.83;0.50;;;13.00;49.60;;;;;;20274;6919;313864;-80
2023/03/10 02:56:00;;;;;;;1.10;0.40;;;12.90;49.40;;;;;;20508;6919;118646;-79
2023/03/10 02:58:26;;;;;;;0.30;0.30;;;12.90;49.30;;;;;;20513;6919;116746;-80
2023/03/10 03:00:51;;;;;;;0.83;0.40;;;12.50;49.70;;;;;;20506;6919;118651;-82
2023/03/10 03:03:17;;;;;;;0.93;0.63;;;12.20;50.20;;;;;;20501;6919;123071;-81
2023/03/10 03:05:43;;;;;;;0.70;0.60;;;12.00;51.20;;;;;;20006;6919;310077;-80
2023/03/10 03:08:09;;;;;;;2.10;0.70;;;12.10;51.70;;;;;;20511;6919;119045;-80
2023/03/10 03:10:36;;;;;;;1.00;0.70;;;12.10;51.40;;;;;;20307;6919;317132;-81
2023/03/10 03:13:03;;;;;;;1.52;0.70;;;12.50;52.70;;;;;;20296;6919;334215;-81
2023/03/10 03:15:29;;;;;;;1.25;0.55;;;12.50;52.60;;;;;;20287;6919;309129;-81
2023/03/10 03:17:57;;;;;;;0.82;0.60;;;12.50;52.20;;;;;;20534;6919;116826;-81
2023/03/10 03:20:22;;;;;;;1.23;0.63;;;12.50;52.20;;;;;;20531;6919;118003;-81
2023/03/10 03:22:48;;;;;;;1.03;0.67;;;12.20;52.50;;;;;;20335;6919;283598;-84
2023/03/10 03:25:14;;;;;;;0.65;0.50;;;12.20;53.50;;;;;;20532;6919;117290;-82
2023/03/10 03:27:39;;;;;;;0.55;0.55;;;12.10;53.20;;;;;;20506;6919;118790;-83
2023/03/10 03:30:05;;;;;;;0.40;0.40;;;11.80;53.20;;;;;;20537;6919;117649;-80
2023/03/10 03:32:31;;;;;;;0.60;0.55;;;11.60;53.50;;;;;;20313;6919;338722;-82
2023/03/10 03:34:58;;;;;;;0.87;0.50;;;11.70;54.30;;;;;;20524;6919;117871;-83
2023/03/10 03:37:22;;;;;;;0.60;0.60;;;11.70;53.90;;;;;;20507;6919;127121;-82
2023/03/10 03:39:47;;;;;;;0.30;0.30;;;11.50;54.00;;;;;;20531;6919;120728;-82
2023/03/10 03:42:13;;;;;;;0.50;0.30;;;11.40;54.20;;;;;;20529;6917;116599;-82
2023/03/10 03:44:39;;;;;;;0.40;0.40;;;11.20;54.20;;;;;;20326;6918;309334;-80
2023/03/10 03:47:07;;;;;;;0.73;0.40;;;11.40;55.10;;;;;;20319;6918;314168;-82
2023/03/10 03:49:31;;;;;;;0.40;0.40;;;11.80;54.10;;;;;;20475;6918;118689;-85
2023/03/10 03:51:56;;;;;;;0.43;0.30;;;11.80;54.10;;;;;;20513;6918;118636;-82
2023/03/10 03:54:22;;;;;;;0.60;0.23;;;11.40;54.20;;;;;;20498;6918;117603;-84
2023/03/10 03:56:48;;;;;;;0.30;0.30;;;11.40;54.20;;;;;;20305;6918;309326;-83
2023/03/10 03:59:13;;;;;;;0.30;0.30;;;11.60;54.70;;;;;;20304;6918;302398;-82
2023/03/10 04:01:40;;;;;;;1.10;0.40;;;11.90;53.60;;;;;;20488;6919;118027;-85
2023/03/10 04:04:07;;;;;;;0.67;0.30;;;11.90;53.60;;;;;;20505;6919;118058;-82
2023/03/10 04:06:32;;;;;;;0.33;0.30;;;11.70;53.60;;;;;;20294;6919;313305;-82
2023/03/10 04:08:59;;;;;;;1.30;0.30;;;11.80;53.90;;;;;;20485;6919;119895;-81
2023/03/10 04:11:25;;;;;;;0.55;0.50;;;11.70;53.60;;;;;;20307;6919;309877;-82
2023/03/10 04:13:50;;;;;;;1.33;0.40;;;11.80;53.70;;;;;;20555;6919;117791;-83
2023/03/10 04:16:16;;;;;;;0.60;0.50;;;11.80;53.50;;;;;;20556;6919;117640;-82
2023/03/10 04:18:42;;;;;;;0.60;0.60;;;11.60;53.70;;;;;;20347;6919;342714;-83
2023/03/10 04:21:08;;;;;;;0.60;0.40;;;11.70;53.90;;;;;;20551;6919;119591;-83
2023/03/10 04:23:34;;;;;;;0.70;0.60;;;11.70;53.60;;;;;;20505;6919;120493;-81
2023/03/10 04:25:59;;;;;;;1.23;0.70;;;11.60;53.70;;;;;;20517;6919;118160;-81
2023/03/10 04:28:25;;;;;;;0.63;0.50;;;11.40;53.80;;;;;;20500;6919;117552;-76
2023/03/10 04:30:51;;;;;;;1.03;0.60;;;11.20;53.80;;;;;;20506;6919;117997;-84
2023/03/10 04:33:17;;;;;;;0.80;0.70;;;11.00;54.10;;;;;;20506;6919;119876;-83
2023/03/10 04:35:43;;;;;;;0.60;0.60;;;11.00;54.10;;;;;;20382;6919;117666;-80
2023/03/10 04:38:08;;;;;;;0.98;0.60;;;10.90;54.30;;;;;;20525;6919;117730;-81
2023/03/10 04:40:34;;;;;;;1.00;0.80;;;10.90;54.40;;;;;;20301;6919;318648;-82
2023/03/10 04:42:59;;;;;;;1.20;0.80;;;11.10;55.10;;;;;;20297;6919;312628;-81
2023/03/10 04:45:25;;;;;;;0.75;0.60;;;11.60;54.80;;;;;;20286;6919;287082;-81
2023/03/10 04:47:51;;;;;;;1.07;0.70;;;11.90;54.00;;;;;;20310;6919;309288;-80
2023/03/10 04:50:16;;;;;;;0.73;0.50;;;12.20;53.50;;;;;;20510;6919;118766;-82
2023/03/10 04:52:42;;;;;;;1.30;0.70;;;12.10;53.30;;;;;;20290;6917;285059;-82
2023/03/10 04:55:08;;;;;;;1.50;0.80;;;12.30;52.90;;;;;;20254;6918;310876;-79
2023/03/10 04:57:34;;;;;;;1.15;0.70;;;12.30;52.90;;;;;;20183;6918;316365;-79
2023/03/10 05:00:00;;;;;;;1.97;0.80;;;12.50;52.50;;;;;;20283;6918;310417;-79
2023/03/10 05:02:28;;;;;;;1.33;0.90;;;12.70;51.80;;;;;;20276;6918;309888;-81
2023/03/10 05:04:54;;;;;;;1.77;0.60;;;12.70;51.60;;;;;;20503;6918;117658;-75
2023/03/10 05:07:20;;;;;;;0.68;0.52;;;12.10;52.20;;;;;;20475;6918;118592;-78
2023/03/10 05:09:47;;;;;;;1.10;0.70;;;12.10;52.20;;;;;;20492;6918;121253;-78
2023/03/10 05:12:12;;;;;;;1.37;0.60;;;11.50;52.90;;;;;;20491;6918;117492;-78
2023/03/10 05:14:37;;;;;;;0.90;0.70;;;11.50;52.90;;;;;;20482;6919;118729;-79
2023/03/10 05:17:03;;;;;;;1.37;0.62;;;11.30;53.20;;;;;;20281;6919;339805;-78
2023/03/10 05:19:30;;;;;;;2.08;0.77;;;11.40;53.40;;;;;;20473;6919;118090;-78
2023/03/10 05:21:55;;;;;;;0.80;0.70;;;11.40;53.10;;;;;;20488;6919;118819;-78
2023/03/10 05:24:21;;;;;;;1.10;0.53;;;11.20;53.20;;;;;;20482;6919;117636;-80
2023/03/10 05:26:47;;;;;;;1.00;0.80;;;11.00;53.40;;;;;;20251;6919;344511;-78
2023/03/10 05:29:12;;;;;;;1.60;0.70;;;11.10;53.50;;;;;;20494;6919;118678;-77
2023/03/10 05:31:38;;;;;;;1.20;0.80;;;11.20;53.30;;;;;;20266;6919;346317;-77
2023/03/10 05:34:03;;;;;;;1.75;0.60;;;11.40;53.60;;;;;;20508;6919;118555;-76
2023/03/10 05:36:29;;;;;;;0.90;0.70;;;11.40;53.40;;;;;;20302;6919;324150;-78
2023/03/10 05:38:55;;;;;;;1.30;0.73;;;11.60;53.70;;;;;;20281;6919;280573;-75
2023/03/10 05:41:20;;;;;;;1.70;0.60;;;11.90;53.30;;;;;;20447;6919;123574;-76
2023/03/10 05:43:47;;;;;;;1.90;0.83;;;11.90;53.10;;;;;;20268;6919;328042;-76
2023/03/10 05:46:13;;;;;;;1.40;0.73;;;11.90;53.10;;;;;;20280;6919;314963;-76
2023/03/10 05:48:40;;;;;;;1.33;0.70;;;12.20;52.80;;;;;;20499;6919;117475;-76
2023/03/10 05:51:07;;;;;;;0.70;0.70;;;12.10;52.60;;;;;;20496;6919;118704;-76
2023/03/10 05:53:33;;;;;;;1.67;0.80;;;11.80;52.80;;;;;;20257;6919;310181;-76
2023/03/10 05:55:59;;;;;;;0.93;0.67;;;11.90;53.80;;;;;;20508;6919;117737;-76
2023/03/10 05:58:24;;;;;;;1.52;0.80;;;11.80;53.60;;;;;;20290;6919;311701;-76
2023/03/10 06:00:50;;;;;;;1.30;0.70;;;11.90;54.40;;;;;;20297;6919;280829;-76
2023/03/10 06:03:16;;;;;;;2.23;1.17;;;12.20;54.50;;;;;;20507;6919;119247;-77
2023/03/10 06:05:41;;;;;;;1.20;0.80;;;12.10;54.20;;;;;;20269;6917;280416;-81
2023/03/10 06:08:07;;;;;;;1.30;0.80;;;12.10;54.60;;;;;;20290;6918;285313;-77
2023/03/10 06:10:34;;;;;;;1.80;0.90;;;12.30;54.40;;;;;;20287;6918;299736;-79
2023/03/10 06:13:02;;;;;;;1.30;0.63;;;12.50;54.20;;;;;;20530;6918;117390;-78
2023/03/10 06:15:28;;;;;;;1.00;0.80;;;12.30;53.90;;;;;;20275;6918;309734;-76
2023/03/10 06:17:53;;;;;;;1.00;0.70;;;12.30;54.20;;;;;;20429;6918;117743;-75
2023/03/10 06:20:19;;;;;;;1.40;0.80;;;12.10;54.00;;;;;;20234;6918;339547;-75
2023/03/10 06:22:45;;;;;;;1.10;0.60;;;12.10;54.40;;;;;;20233;6918;309668;-73
2023/03/10 06:25:10;;;;;;;0.82;0.65;;;12.40;54.40;;;;;;20464;6919;117661;-74
2023/03/10 06:27:36;;;;;;;1.37;0.80;;;12.20;54.20;;;;;;20238;6919;461843;-74
2023/03/10 06:30:01;;;;;;;1.48;0.70;;;12.30;54.80;;;;;;20253;6919;297640;-75
2023/03/10 06:32:27;;;;;;;1.07;0.80;;;12.40;54.50;;;;;;20494;6919;120898;-74
2023/03/10 06:34:53;;;;;;;0.70;0.60;;;12.30;54.20;;;;;;20499;6919;118057;-75
2023/03/10 06:37:18;;;;;;;1.77;0.60;;;12.10;54.70;;;;;;20259;6919;339969;-77
2023/03/10 06:39:45;;;;;;;1.90;0.77;;;12.10;55.30;;;;;;20285;6919;301855;-77
2023/03/10 06:42:11;;;;;;;0.80;0.80;;;12.30;54.80;;;;;;20498;6919;117664;-76
2023/03/10 06:44:37;;;;;;;0.80;0.80;;;12.00;54.80;;;;;;20497;6919;118769;-76
2023/03/10 06:47:04;;;;;;;1.20;0.82;;;11.90;54.70;;;;;;20285;6919;339468;-77
2023/03/10 06:49:29;;;;;;;1.27;0.80;;;12.00;55.50;;;;;;20262;6919;310335;-77
2023/03/10 06:51:55;;;;;;;0.83;0.60;;;12.30;54.80;;;;;;20492;6919;118488;-77
2023/03/10 06:54:21;;;;;;;1.33;0.70;;;12.10;54.90;;;;;;20498;6919;118017;-77
2023/03/10 06:56:47;;;;;;;0.70;0.50;;;11.60;56.00;;;;;;20488;6919;117476;-77
2023/03/10 06:59:13;;;;;;;1.10;0.60;;;11.80;57.90;;;;;;20286;6919;280001;-77
2023/03/10 07:01:39;;;;;;;0.97;0.60;;;11.70;57.20;;;;;;20273;6919;282547;-77
2023/03/10 07:04:04;;;;;;;2.07;0.60;;;12.20;57.50;;;;;;20283;6919;281166;-72
2023/03/10 07:06:30;;;;;;;1.07;0.70;;;12.50;56.40;;;;;;20500;6919;117624;-76
2023/03/10 07:08:56;;;;;;;1.62;0.70;;;12.60;56.40;;;;;;20287;6919;345376;-76
2023/03/10 07:11:22;;;;;;;1.40;0.73;;;12.60;56.40;;;;;;20271;6919;312261;-76
2023/03/10 07:13:48;;;;;;;1.10;0.67;;;13.00;55.30;;;;;;20268;6919;285233;-78
2023/03/10 07:16:14;;;;;;;1.15;0.77;;;13.00;55.30;;;;;;20315;6917;311937;-72
2023/03/10 07:18:39;;;;;;;3.27;0.80;;;13.20;54.80;;;;;;20502;6918;117983;-76
2023/03/10 07:21:09;;;;;;;2.10;0.90;;;13.00;54.70;;;;;;20307;6918;309142;-81
2023/03/10 07:23:36;;;;;;;0.98;0.80;;;13.20;54.70;;;;;;20284;6918;314560;-81
2023/03/10 07:26:02;;;;;;;1.30;0.90;;;13.20;54.10;;;;;;20302;6918;284270;-77
2023/03/10 07:28:29;;;;;;;0.60;0.60;;;13.40;53.30;;;;;;20284;6918;310459;-77
2023/03/10 07:30:56;;;;;;;0.60;0.60;;;13.50;53.30;;;;;;20493;6918;117886;-77
2023/03/10 07:33:20;;;;;;;0.80;0.80;;;13.30;53.20;;;;;;20258;6918;280544;-76
2023/03/10 07:35:46;;;;;;;1.17;0.88;;;13.20;53.20;;;;;;20287;6919;339462;-77
2023/03/10 07:38:11;;;;;;;1.67;0.60;;;13.40;53.00;;;;;;20490;6919;118046;-77
2023/03/10 07:40:40;;;;;;;1.80;1.00;;;13.30;53.10;;;;;;20285;6919;296783;-76
2023/03/10 07:43:07;;;;;;;1.33;0.90;;;13.30;53.00;;;;;;20493;6919;117866;-78
2023/03/10 07:45:34;;;;;;;1.65;0.95;;;13.20;53.10;;;;;;20270;6919;310007;-77
2023/03/10 07:47:58;;;;;;;0.90;0.90;;;13.20;52.80;;;;;;20495;6919;118082;-77
2023/03/10 07:50:25;;;;;;;1.43;0.80;;;12.90;53.10;;;;;;20489;6919;117680;-77
2023/03/10 07:52:50;;;;;;;0.80;0.80;;;12.90;53.10;;;;;;20494;6919;118089;-77
2023/03/10 07:55:17;;;;;;;0.88;0.88;;;12.70;53.40;;;;;;20283;6919;314339;-76
2023/03/10 07:57:44;;;;;;;1.00;0.90;;;13.20;52.40;;;;;;20272;6919;329751;-77
2023/03/10 08:00:09;;;;;;;1.00;0.90;;;13.20;52.40;;;;;;20499;6919;118129;-77
2023/03/10 08:02:35;;;;;;;1.70;1.60;;;13.20;52.40;;;;;;20496;6919;119090;-77
2023/03/10 08:05:01;;;;;;;3.37;1.17;;;13.00;52.60;;;;;;20504;6919;118520;-77
2023/03/10 08:07:26;;;;;;;1.10;0.90;;;12.80;52.70;;;;;;20268;6919;282024;-77
2023/03/10 08:09:52;;;;;;;3.53;3.33;;;12.90;52.10;;;;;;20276;6919;314195;-77
2023/03/10 08:12:17;;;;;;;0.53;0.53;;;13.20;51.90;;;;;;20499;6919;121551;-77
2023/03/10 08:14:43;;;;;;;2.40;2.20;;;13.20;51.60;;;;;;20284;6919;284551;-77
2023/03/10 08:17:20;;;;;;;3.13;2.93;;;13.20;51.30;;;;;;20481;6919;118212;-74
2023/03/10 08:19:46;;;;;;;3.10;2.90;;;13.20;51.50;;;;;;20493;6919;121699;-77
2023/03/10 08:22:11;;;;;;;1.20;0.67;;;13.00;51.70;;;;;;20499;6919;117560;-77
2023/03/10 08:24:37;;;;;;;1.25;1.15;;;12.80;51.80;;;;;;20278;6919;340208;-78
2023/03/10 08:27:03;;;;;;;2.78;2.58;;;12.90;50.60;;;;;;20291;6917;317144;-74
2023/03/10 08:29:28;;;;;;;2.27;2.17;;;13.20;50.30;;;;;;20483;6918;119168;-76
2023/03/10 08:31:54;;;;;;;3.42;3.20;;;13.10;50.30;;;;;;20296;6918;310270;-77
2023/03/10 08:34:22;;;;;;;7.03;6.50;;;13.20;50.50;;;;;;20509;6918;117501;-78
2023/03/10 08:36:46;;;;;;;5.47;4.93;;;13.00;50.30;;;;;;20490;6918;117624;-76
2023/03/10 08:39:13;;;;;;;9.40;7.93;;;12.80;50.80;;;;;;20499;6918;117940;-78
2023/03/10 08:41:40;;;;;;;13.10;10.88;;;12.60;51.30;;;;;;20271;6918;314763;-78
2023/03/10 08:44:05;;;;;;;9.00;8.10;;;13.00;51.70;;;;;;20494;6918;118264;-77
2023/03/10 08:46:31;;;;;;;0.67;0.67;;;13.00;51.70;;;;;;20500;6918;118751;-75
2023/03/10 08:48:56;;;;;;;2.33;2.13;;;12.90;51.40;;;;;;20491;6919;117543;-77
2023/03/10 08:51:22;;;;;;;1.27;1.17;;;12.80;51.40;;;;;;20267;6919;280277;-78
2023/03/10 08:53:47;;;;;;;1.37;1.10;;;12.90;51.00;;;;;;20271;6919;282276;-77
2023/03/10 08:56:13;;;;;;;1.73;1.60;;;13.30;50.10;;;;;;20413;6919;117959;-78
2023/03/10 08:58:38;;;;;;;3.30;3.00;;;13.30;50.00;;;;;;20473;6919;117843;-76
2023/03/10 09:01:05;;;;;;;1.83;1.50;;;13.10;50.10;;;;;;20485;6919;118593;-77
2023/03/10 09:03:31;;;;;;;1.17;1.00;;;13.00;50.50;;;;;;20465;6919;118843;-77
2023/03/10 09:05:56;;;;;;;1.17;0.70;;;12.80;50.80;;;;;;20253;6919;281674;-77
2023/03/10 09:08:22;;;;;;;0.80;0.70;;;13.00;50.40;;;;;;20284;6919;310180;-77
2023/03/10 09:10:48;;;;;;;1.05;0.62;;;13.40;49.90;;;;;;20499;6919;117700;-78
2023/03/10 09:13:13;;;;;;;1.30;0.80;;;13.40;49.70;;;;;;20493;6919;122098;-77
2023/03/10 09:15:40;;;;;;;0.83;0.83;;;13.10;49.90;;;;;;20483;6919;117821;-77
2023/03/10 09:18:05;;;;;;;0.80;0.80;;;13.30;51.20;;;;;;20291;6919;310260;-75
2023/03/10 09:20:31;;;;;;;0.60;0.60;;;13.30;51.20;;;;;;20215;6919;340214;-75
2023/03/10 09:22:56;;;;;;;0.93;0.80;;;13.90;50.60;;;;;;20305;6919;314354;-76
2023/03/10 09:25:22;;;;;;;0.60;0.60;;;14.50;49.90;;;;;;20239;6919;300532;-76
2023/03/10 09:27:48;;;;;;;0.57;0.57;;;15.10;48.90;;;;;;20286;6919;309785;-76
2023/03/10 09:30:14;;;;;;;0.33;0.33;;;15.60;47.10;;;;;;20498;6919;123518;-76
2023/03/10 09:32:40;;;;;;;0.60;0.60;;;15.80;47.50;;;;;;20285;6919;279638;-76
2023/03/10 09:35:05;;;;;;;1.00;0.83;;;16.20;46.20;;;;;;20282;6919;309770;-76
2023/03/10 09:37:31;;;;;;;1.33;1.23;;;16.60;45.60;;;;;;20265;6919;286404;-76
2023/03/10 09:39:56;;;;;;;1.47;0.80;;;16.90;44.30;;;;;;20264;6917;310900;-76
2023/03/10 09:42:39;;;;;;;1.57;0.90;;;17.10;42.40;;;;;;20297;6918;281425;-76
2023/03/10 09:45:27;;;;;;;0.93;0.60;;;17.10;41.50;;;;;;20293;6918;316887;-76
2023/03/10 09:48:25;;;;;;;0.77;0.77;;;17.00;41.50;;;;;;20487;6918;117809;-74
2023/03/10 09:50:51;;;;;;;1.27;1.17;;;16.40;42.50;;;;;;20296;6918;325411;-75
2023/03/10 09:53:47;;;;;;;1.03;0.90;;;15.70;44.60;;;;;;20487;6918;117986;-74
2023/03/10 09:56:15;;;;;;;1.60;1.40;;;15.70;44.60;;;;;;20290;6918;282704;-74
2023/03/10 09:59:06;;;;;;;4.25;3.85;;;15.60;44.10;;;;;;20163;6919;340397;-74
2023/03/10 10:01:29;;;;;;;6.03;5.53;;;15.60;43.60;;;;;;20257;6919;280681;-74
2023/03/10 10:03:59;;;;;;;1.80;1.23;;;15.60;44.10;;;;;;20278;6919;280960;-72
2023/03/10 10:06:25;;;;;;;1.75;1.10;;;15.50;44.10;;;;;;20257;6919;345579;-73
2023/03/10 10:09:00;;;;;;;1.40;0.77;;;15.60;44.30;;;;;;20500;6919;117665;-75
2023/03/10 10:11:27;;;;;;;1.27;0.70;;;15.40;44.60;;;;;;20258;6919;309971;-75
2023/03/10 10:13:56;;;;;;;2.00;0.82;;;15.50;44.80;;;;;;20260;6919;310353;-77
2023/03/10 10:16:30;;;;;;;1.50;0.67;;;15.40;44.60;;;;;;20454;6919;117550;-75
2023/03/10 10:18:57;;;;;;;1.30;0.70;;;15.30;44.40;;;;;;20277;6919;282016;-76
2023/03/10 10:22:00;;;;;;;2.30;0.80;;;15.40;45.40;;;;;;20246;6919;339749;-74
2023/03/10 10:24:25;;;;;;;3.33;0.97;;;15.40;45.40;;;;;;20490;6919;122208;-75
2023/03/10 10:26:51;;;;;;;1.70;0.70;;;15.40;45.50;;;;;;20283;6919;310016;-75
2023/03/10 10:29:36;;;;;;;1.80;0.90;;;15.40;45.10;;;;;;20284;6919;310138;-75
2023/03/10 10:32:12;;;;;;;2.17;0.70;;;15.60;44.50;;;;;;20441;6919;117666;-78
2023/03/10 10:34:37;;;;;;;0.62;0.57;;;15.50;44.80;;;;;;20279;6919;310392;-74
2023/03/10 10:37:03;;;;;;;0.77;0.40;;;15.60;45.00;;;;;;20484;6919;118758;-75
2023/03/10 10:39:31;;;;;;;0.80;0.70;;;15.50;44.50;;;;;;20206;6919;310307;-74
2023/03/10 10:42:20;;;;;;;1.17;1.07;;;15.50;44.10;;;;;;20490;6919;119837;-74
2023/03/10 10:44:51;;;;;;;1.10;0.70;;;15.10;44.80;;;;;;20499;6919;118388;-74
2023/03/10 10:47:35;;;;;;;0.70;0.70;;;15.10;44.30;;;;;;20293;6919;294302;-73
2023/03/10 10:50:17;;;;;;;0.70;0.60;;;15.10;44.50;;;;;;20047;6919;311897;-78
2023/03/10 10:52:47;;;;;;;0.97;0.67;;;15.40;43.90;;;;;;20450;6918;117688;-75
2023/03/10 10:55:10;;;;;;;1.10;0.90;;;15.20;44.00;;;;;;20285;6918;280771;-76
2023/03/10 10:57:37;;;;;;;0.82;0.62;;;15.20;44.50;;;;;;20230;6918;309457;-73
2023/03/10 11:00:26;;;;;;;0.93;0.80;;;15.50;43.10;;;;;;20270;6918;339014;-74
2023/03/10 11:02:52;;;;;;;0.80;0.60;;;15.50;43.10;;;;;;20492;6918;119851;-74
2023/03/10 11:05:17;;;;;;;1.30;0.60;;;15.20;43.50;;;;;;20496;6918;118132;-72
2023/03/10 11:07:43;;;;;;;0.60;0.60;;;14.80;44.10;;;;;;20468;6918;124927;-73
2023/03/10 11:10:17;;;;;;;0.67;0.50;;;14.50;44.80;;;;;;20281;6918;280859;-74
2023/03/10 11:12:52;;;;;;;1.03;0.57;;;14.50;44.80;;;;;;20238;6919;309820;-75
2023/03/10 11:15:19;;;;;;;2.00;0.60;;;14.80;44.30;;;;;;20447;6919;145613;-77
2023/03/10 11:17:50;;;;;;;1.10;0.80;;;14.80;44.70;;;;;;20261;6919;310686;-74
2023/03/10 11:20:32;;;;;;;0.85;0.50;;;14.90;44.80;;;;;;20276;6919;339799;-76
2023/03/10 11:23:18;;;;;;;1.60;1.23;;;15.10;44.00;;;;;;20272;6919;280659;-74
2023/03/10 11:25:59;;;;;;;1.20;0.60;;;15.40;43.20;;;;;;20280;6919;282190;-76
2023/03/10 11:28:52;;;;;;;1.25;0.80;;;15.50;42.50;;;;;;20282;6919;341055;-75
2023/03/10 11:31:17;;;;;;;0.40;0.40;;;15.50;43.00;;;;;;20493;6919;118729;-77
2023/03/10 11:33:47;;;;;;;0.90;0.57;;;15.20;43.30;;;;;;20088;6941;309795;-74
2023/03/10 11:36:26;;;;;;;1.35;0.70;;;15.10;43.30;;;;;;20273;6920;310606;-73
2023/03/10 11:38:53;;;;;;;0.80;0.50;;;15.20;42.60;;;;;;20474;6920;117869;-75
2023/03/10 11:41:17;;;;;;;1.58;0.70;;;15.10;43.90;;;;;;20268;6920;317358;-76
2023/03/10 11:43:54;;;;;;;0.93;0.60;;;15.10;43.90;;;;;;20444;6920;121300;-75
2023/03/10 11:46:29;;;;;;;2.30;0.73;;;15.00;44.10;;;;;;20470;6920;117669;-76
2023/03/10 11:49:11;;;;;;;0.50;0.50;;;14.90;44.40;;;;;;20486;6920;121300;-75
2023/03/10 11:51:44;;;;;;;0.30;0.30;;;14.70;44.40;;;;;;20417;6920;118694;-74
2023/03/10 11:54:13;;;;;;;0.88;0.70;;;14.50;44.60;;;;;;20271;6920;304560;-75
2023/03/10 11:56:38;;;;;;;2.03;0.57;;;14.60;44.30;;;;;;20478;6920;117957;-76
2023/03/10 11:59:20;;;;;;;0.80;0.60;;;14.60;44.60;;;;;;20269;6920;342364;-75
2023/03/10 12:01:52;;;;;;;1.87;0.60;;;14.70;44.80;;;;;;20488;6919;117942;-74
2023/03/10 12:04:41;;;;;;;0.93;0.57;;;14.60;44.60;;;;;;20482;6920;117666;-74
2023/03/10 12:07:26;;;;;;;1.55;0.70;;;14.30;45.00;;;;;;20247;6920;280954;-74
2023/03/10 12:09:53;;;;;;;0.60;0.53;;;14.40;45.60;;;;;;20484;6920;118322;-75
2023/03/10 12:12:30;;;;;;;0.43;0.43;;;14.40;45.70;;;;;;20483;6920;118442;-73
2023/03/10 12:14:56;;;;;;;0.60;0.60;;;14.30;46.10;;;;;;20275;6920;301812;-75
2023/03/10 12:17:22;;;;;;;0.75;0.40;;;14.80;46.00;;;;;;20256;6920;280683;-76
2023/03/10 12:20:10;;;;;;;0.57;0.43;;;14.80;45.90;;;;;;20271;6920;310209;-74
2023/03/10 12:22:34;;;;;;;0.77;0.57;;;15.10;44.10;;;;;;20489;6920;117683;-75
2023/03/10 12:25:00;;;;;;;0.37;0.27;;;15.00;44.20;;;;;;20482;6920;117692;-78
2023/03/10 12:27:26;;;;;;;0.77;0.50;;;14.80;44.70;;;;;;20253;6920;340229;-75
2023/03/10 12:29:52;;;;;;;1.20;0.40;;;14.90;44.60;;;;;;20501;6920;120175;-76
2023/03/10 12:32:40;;;;;;;0.65;0.40;;;14.90;44.60;;;;;;20280;6920;310066;-76
2023/03/10 12:35:21;;;;;;;0.83;0.30;;;15.00;44.20;;;;;;20474;6920;118627;-79
2023/03/10 12:37:48;;;;;;;1.00;0.33;;;14.90;43.90;;;;;;20269;6920;122050;-76
2023/03/10 12:40:43;;;;;;;0.83;0.37;;;14.70;44.10;;;;;;20269;6920;315165;-77